Seven Seas Mariner — C6VV8 — position and weather

sailwx.info

Track history (hours):
 
Tides and Currents Weather Stations Pressure Air Temp Water Temp Dewpoint Dewpoint Depression Visibility Wind Speed Wind Dir Waves Ship Positions

Seven Seas Mariner

Last reported at 2018-Jul-21 11:12 UTC. Time now 2018-Jul-22 07:06 UTC.
Position N 58°09' W 135°17'.

Length 216 m; draft 7.1 m.

Type: Passenger vessel. MMSI: 311622000.

Date/timePositionNaut miles runAvg speedWind from/ knotsBaromVisibWave heightAir tempDewpointWater temp
2018-Jul-21 11:12N 58°09' W 135°17'315.3
2018-Jul-21 11:00N 58°11' W 135°22'4768.3
2018-Jul-21 11:00N 58°12' W 135°30'4 7.3 290 / 12 10.8 12.010.211.0
2018-Jul-21 10:30N 58°15' W 135°34'714.9
2018-Jul-21 10:00N 58°19' W 135°46'714.8
2018-Jul-21 09:31N 58°20' W 136°00'814.8
2018-Jul-21 09:00N 58°18' W 136°14'46 1.9
2018-Jul-20 09:00N 57°42' W 137°06'27211.4 310 / 20 10.8 14.010.512.0
2018-Jul-19 09:00N 59°30' W 145°06'85 3.4 260 / 24 10.8 13.0 9.411.0
2018-Jul-18 08:00N 59°36' W 147°54'26213.1 270 / 12 10.8 14.010.512.0
2018-Jul-17 12:00N 59°06' W 139°24'126 4.8 130 / 12 10.8 14.010.512.0
2018-Jul-16 10:00N 57°36' W 136°36'4317.9 220 / 24 10.8 12.0 8.310.0
2018-Jul-16 07:35N 58°18' W 136°17'218.1
2018-Jul-16 07:30N 58°18' W 136°14'816.4
2018-Jul-16 07:00N 58°20' W 135°59'917.5
2018-Jul-16 06:31N 58°18' W 135°43'1019.1
2018-Jul-16 06:00N 58°14' W 135°25'35 1.8
2018-Jul-15 10:00N 58°48' W 135°06'102 4.4 170 / 21 10.8 13.0 9.411.0
2018-Jul-14 11:00N 57°12' W 134°00'170 7.0 250 / 10 10.8 14.010.512.0
2018-Jul-13 10:46N 54°53' W 131°04'313.5
2018-Jul-13 10:30N 54°49' W 131°05'713.2
2018-Jul-13 10:01N 54°43' W 131°09'813.4
2018-Jul-13 09:25N 54°37' W 131°17'513.1
2018-Jul-13 09:01N 54°32' W 131°14'713.5
2018-Jul-13 08:30N 54°26' W 131°08'713.3
2018-Jul-13 08:00N 54°20' W 131°03'612.6
2018-Jul-13 07:30N 54°13' W 131°02'612.8
2018-Jul-13 07:00N 54°07' W 131°02'713.0
2018-Jul-13 06:30N 54°00' W 131°01'713.0
2018-Jul-13 06:00N 53°54' W 130°59'713.3
2018-Jul-13 05:30N 53°48' W 130°56'713.0
2018-Jul-13 05:00N 53°41' W 130°54'713.4
2018-Jul-13 04:30N 53°35' W 130°52'713.1
2018-Jul-13 04:00N 53°28' W 130°49'913.4
2018-Jul-13 03:17N 53°19' W 130°46'10613.5
2018-Jul-12 19:26N 51°41' W 129°42'614.6
2018-Jul-12 19:00N 51°35' W 129°36'1014.6
2018-Jul-12 18:18N 51°27' W 129°27'414.7
2018-Jul-12 18:00N 51°25' W 129°21'714.7
2018-Jul-12 17:30N 51°22' W 129°10'714.8
2018-Jul-12 17:00N 51°19' W 128°60'4250.4
2018-Jul-12 17:00N 51°18' W 129°06'1122.8 350 / 22 10.8 16.012.714.0
2018-Jul-12 16:30N 51°16' W 128°49'714.8
2018-Jul-12 16:00N 51°13' W 128°38'714.8
2018-Jul-12 15:30N 51°10' W 128°27'714.6
2018-Jul-12 15:00N 51°07' W 128°16'714.9
2018-Jul-12 14:30N 51°04' W 128°06'715.0
2018-Jul-12 14:00N 51°01' W 127°55'612.8
2018-Jul-12 13:30N 50°58' W 127°46'1019.4
2018-Jul-12 13:00N 50°52' W 127°33'1019.7
2018-Jul-12 12:30N 50°48' W 127°19'1018.8
2018-Jul-12 11:58N 50°44' W 127°04'918.3
2018-Jul-12 11:29N 50°40' W 126°52'918.1
2018-Jul-12 11:00N 50°35' W 126°42'915.1
2018-Jul-12 10:26N 50°30' W 126°30'4116.6
2018-Jul-12 07:57N 50°20' W 125°27'716.0
2018-Jul-12 07:30N 50°14' W 125°23'714.7
2018-Jul-12 07:00N 50°07' W 125°19'5 9.4
2018-Jul-12 06:30N 50°03' W 125°15'5 9.3
2018-Jul-12 06:00N 49°59' W 125°12'918.1
2018-Jul-12 05:30N 49°53' W 125°02'713.8
2018-Jul-12 04:59N 49°48' W 124°54'612.1
2018-Jul-12 04:30N 49°44' W 124°47'816.5
2018-Jul-12 04:00N 49°38' W 124°39'1020.0
2018-Jul-12 03:30N 49°30' W 124°29'1019.3
2018-Jul-12 02:59N 49°25' W 124°16'1119.8
2018-Jul-12 02:25N 49°23' W 123°58'919.9
2018-Jul-12 01:57N 49°21' W 123°44'920.2
2018-Jul-12 01:30N 49°20' W 123°31'1019.7
2018-Jul-12 01:00N 49°19' W 123°16'612.9
2018-Jul-12 00:30N 49°18' W 123°06'0 0.7
2018-Jul-12 00:00N 49°17' W 123°07'0 0.0
2018-Jul-11 23:30N 49°17' W 123°07'0 0.0
2018-Jul-11 23:00N 49°17' W 123°07'0 0.0
2018-Jul-11 22:30N 49°17' W 123°07'0 0.0
2018-Jul-11 22:00N 49°17' W 123°07'0 0.0
2018-Jul-11 21:30N 49°17' W 123°07'0 0.0
2018-Jul-11 21:00N 49°17' W 123°07'5340.8
2018-Jul-11 21:00N 49°12' W 123°06'511.1 260 / 10 10.8 19.014.216.0
2018-Jul-11 20:30N 49°17' W 123°07'0 0.0
2018-Jul-11 20:00N 49°17' W 123°07'0 0.0
2018-Jul-11 19:30N 49°17' W 123°07'0 0.0
2018-Jul-11 19:00N 49°17' W 123°07'0 0.0
2018-Jul-11 18:30N 49°17' W 123°07'0 0.0
2018-Jul-11 18:00N 49°17' W 123°07'0 0.0
2018-Jul-11 17:24N 49°17' W 123°07'0 0.0
2018-Jul-11 17:00N 49°17' W 123°07'0 0.0
2018-Jul-11 16:30N 49°17' W 123°07'0 0.0
2018-Jul-11 16:00N 49°17' W 123°07'0 0.0
2018-Jul-11 15:30N 49°17' W 123°07'0 0.0
2018-Jul-11 15:00N 49°17' W 123°07'0 0.0
2018-Jul-11 14:30N 49°17' W 123°07'0 0.0
2018-Jul-11 14:00N 49°17' W 123°07'0 0.0
2018-Jul-11 13:30N 49°17' W 123°07'0 0.0
2018-Jul-11 13:00N 49°17' W 123°07'2 3.8
2018-Jul-11 12:30N 49°19' W 123°08'4 7.1
2018-Jul-11 12:00N 49°19' W 123°14'4 7.6
2018-Jul-11 11:30N 49°17' W 123°19'  
Track history (hours):
 
Tides and Currents Weather Stations Pressure Air Temp Water Temp Dewpoint Dewpoint Depression Visibility Wind Speed Wind Dir Waves Ship Positions

Seven Seas Mariner

Last reported at 2018-Jul-21 11:12 UTC. Time now 2018-Jul-22 07:06 UTC.
Position N 58°09' W 135°17'.

Length 216 m; draft 7.1 m.

Type: Passenger vessel. MMSI: 311622000.

Date/timePositionNaut miles runAvg speedWind from/ knotsBaromVisibWave heightAir tempDewpointWater temp
2018-Jul-21 11:12N 58°09' W 135°17'315.3
2018-Jul-21 11:00N 58°11' W 135°22'4768.3
2018-Jul-21 11:00N 58°12' W 135°30'4 7.3 290 / 12 10.8 12.010.211.0
2018-Jul-21 10:30N 58°15' W 135°34'714.9
2018-Jul-21 10:00N 58°19' W 135°46'714.8
2018-Jul-21 09:31N 58°20' W 136°00'814.8
2018-Jul-21 09:00N 58°18' W 136°14'46 1.9
2018-Jul-20 09:00N 57°42' W 137°06'27211.4 310 / 20 10.8 14.010.512.0
2018-Jul-19 09:00N 59°30' W 145°06'85 3.4 260 / 24 10.8 13.0 9.411.0
2018-Jul-18 08:00N 59°36' W 147°54'26213.1 270 / 12 10.8 14.010.512.0
2018-Jul-17 12:00N 59°06' W 139°24'126 4.8 130 / 12 10.8 14.010.512.0
2018-Jul-16 10:00N 57°36' W 136°36'4317.9 220 / 24 10.8 12.0 8.310.0
2018-Jul-16 07:35N 58°18' W 136°17'218.1
2018-Jul-16 07:30N 58°18' W 136°14'816.4
2018-Jul-16 07:00N 58°20' W 135°59'917.5
2018-Jul-16 06:31N 58°18' W 135°43'1019.1
2018-Jul-16 06:00N 58°14' W 135°25'35 1.8
2018-Jul-15 10:00N 58°48' W 135°06'102 4.4 170 / 21 10.8 13.0 9.411.0
2018-Jul-14 11:00N 57°12' W 134°00'170 7.0 250 / 10 10.8 14.010.512.0
2018-Jul-13 10:46N 54°53' W 131°04'313.5
2018-Jul-13 10:30N 54°49' W 131°05'713.2
2018-Jul-13 10:01N 54°43' W 131°09'813.4
2018-Jul-13 09:25N 54°37' W 131°17'513.1
2018-Jul-13 09:01N 54°32' W 131°14'713.5
2018-Jul-13 08:30N 54°26' W 131°08'713.3
2018-Jul-13 08:00N 54°20' W 131°03'612.6
2018-Jul-13 07:30N 54°13' W 131°02'612.8
2018-Jul-13 07:00N 54°07' W 131°02'713.0
2018-Jul-13 06:30N 54°00' W 131°01'713.0
2018-Jul-13 06:00N 53°54' W 130°59'713.3
2018-Jul-13 05:30N 53°48' W 130°56'713.0
2018-Jul-13 05:00N 53°41' W 130°54'713.4
2018-Jul-13 04:30N 53°35' W 130°52'713.1
2018-Jul-13 04:00N 53°28' W 130°49'913.4
2018-Jul-13 03:17N 53°19' W 130°46'10613.5
2018-Jul-12 19:26N 51°41' W 129°42'614.6
2018-Jul-12 19:00N 51°35' W 129°36'1014.6
2018-Jul-12 18:18N 51°27' W 129°27'414.7
2018-Jul-12 18:00N 51°25' W 129°21'714.7
2018-Jul-12 17:30N 51°22' W 129°10'714.8
2018-Jul-12 17:00N 51°19' W 128°60'4250.4
2018-Jul-12 17:00N 51°18' W 129°06'1122.8 350 / 22 10.8 16.012.714.0
2018-Jul-12 16:30N 51°16' W 128°49'714.8
2018-Jul-12 16:00N 51°13' W 128°38'714.8
2018-Jul-12 15:30N 51°10' W 128°27'714.6
2018-Jul-12 15:00N 51°07' W 128°16'714.9
2018-Jul-12 14:30N 51°04' W 128°06'715.0
2018-Jul-12 14:00N 51°01' W 127°55'612.8
2018-Jul-12 13:30N 50°58' W 127°46'1019.4
2018-Jul-12 13:00N 50°52' W 127°33'1019.7
2018-Jul-12 12:30N 50°48' W 127°19'1018.8
2018-Jul-12 11:58N 50°44' W 127°04'918.3
2018-Jul-12 11:29N 50°40' W 126°52'918.1
2018-Jul-12 11:00N 50°35' W 126°42'915.1
2018-Jul-12 10:26N 50°30' W 126°30'4116.6
2018-Jul-12 07:57N 50°20' W 125°27'716.0
2018-Jul-12 07:30N 50°14' W 125°23'714.7
2018-Jul-12 07:00N 50°07' W 125°19'5 9.4
2018-Jul-12 06:30N 50°03' W 125°15'5 9.3
2018-Jul-12 06:00N 49°59' W 125°12'918.1
2018-Jul-12 05:30N 49°53' W 125°02'713.8
2018-Jul-12 04:59N 49°48' W 124°54'612.1
2018-Jul-12 04:30N 49°44' W 124°47'816.5
2018-Jul-12 04:00N 49°38' W 124°39'1020.0
2018-Jul-12 03:30N 49°30' W 124°29'1019.3
2018-Jul-12 02:59N 49°25' W 124°16'1119.8
2018-Jul-12 02:25N 49°23' W 123°58'919.9
2018-Jul-12 01:57N 49°21' W 123°44'920.2
2018-Jul-12 01:30N 49°20' W 123°31'1019.7
2018-Jul-12 01:00N 49°19' W 123°16'612.9
2018-Jul-12 00:30N 49°18' W 123°06'0 0.7
2018-Jul-12 00:00N 49°17' W 123°07'0 0.0
2018-Jul-11 23:30N 49°17' W 123°07'0 0.0
2018-Jul-11 23:00N 49°17' W 123°07'0 0.0
2018-Jul-11 22:30N 49°17' W 123°07'0 0.0
2018-Jul-11 22:00N 49°17' W 123°07'0 0.0
2018-Jul-11 21:30N 49°17' W 123°07'0 0.0
2018-Jul-11 21:00N 49°17' W 123°07'5340.8
2018-Jul-11 21:00N 49°12' W 123°06'511.1 260 / 10 10.8 19.014.216.0
2018-Jul-11 20:30N 49°17' W 123°07'0 0.0
2018-Jul-11 20:00N 49°17' W 123°07'0 0.0
2018-Jul-11 19:30N 49°17' W 123°07'0 0.0
2018-Jul-11 19:00N 49°17' W 123°07'0 0.0
2018-Jul-11 18:30N 49°17' W 123°07'0 0.0
2018-Jul-11 18:00N 49°17' W 123°07'0 0.0
2018-Jul-11 17:24N 49°17' W 123°07'0 0.0
2018-Jul-11 17:00N 49°17' W 123°07'0 0.0
2018-Jul-11 16:30N 49°17' W 123°07'0 0.0
2018-Jul-11 16:00N 49°17' W 123°07'0 0.0
2018-Jul-11 15:30N 49°17' W 123°07'0 0.0
2018-Jul-11 15:00N 49°17' W 123°07'0 0.0
2018-Jul-11 14:30N 49°17' W 123°07'0 0.0
2018-Jul-11 14:00N 49°17' W 123°07'0 0.0
2018-Jul-11 13:30N 49°17' W 123°07'0 0.0
2018-Jul-11 13:00N 49°17' W 123°07'2 3.8
2018-Jul-11 12:30N 49°19' W 123°08'4 7.1
2018-Jul-11 12:00N 49°19' W 123°14'4 7.6
2018-Jul-11 11:30N 49°17' W 123°19'  

Dump ship's entire track history